Flight Track Log - Related Links

Times and Time Zones

All times are in EDT time to prevent confusion due to time zone crossing. See the ACA831 flight status page for this flight to view local times or setup timezone preferences in your user account.

Time Position Orientation Groundspeed Altitude Reporting Facility
EDT Latitude Longitude Course Direction KTS MPH feet Rate Location/Type
Mon 06:16:33 AM 46.2290 6.1040 156° South  Level FlightAware ADS-B
Mon 06:37:00 AM 46.3559 5.8451 300° West  Level Estimated
Mon 06:38:21 AM 46.2340 6.1070 224° Southwest 165 190  Level FlightAware ADS-B
Mon 06:38:41 AM 46.2240 6.0910 228° Southwest 167 192 1,900 4,200 Climbing FlightAware ADS-B
Mon 06:39:01 AM 46.2130 6.0760 223° Southwest 178 205 2,800 2,533 Climbing FlightAware ADS-B
Mon 06:39:26 AM 46.2000 6.0570 225° Southwest 174 200 3,800 2,667 Climbing FlightAware ADS-B
Mon 06:39:46 AM 46.1860 6.0360 226° Southwest 174 200 4,800 2,700 Climbing FlightAware ADS-B
Mon 06:40:06 AM 46.1740 6.0170 228° Southwest 176 203 5,600 2,400 Climbing FlightAware ADS-B
Mon 06:40:26 AM 46.1630 6.0020 223° Southwest 181 208 6,400 2,400 Climbing FlightAware ADS-B
Mon 06:40:41 AM 46.1540 5.9890 225° Southwest 181 208 7,000 1,467 Climbing FlightAware ADS-B
Mon 06:41:11 AM 46.1350 5.9590 228° Southwest 213 245 7,500 1,200 Climbing FlightAware ADS-B
Mon 06:41:26 AM 46.1260 5.9410 234° Southwest 230 265 7,900 1,950 Climbing FlightAware ADS-B
Mon 06:41:51 AM 46.1100 5.9060 237° Southwest 256 295 8,800 2,133 Climbing FlightAware ADS-B
Mon 06:42:11 AM 46.0990 5.8800 239° Southwest 265 305 9,500 2,291 Climbing FlightAware ADS-B
Mon 06:42:46 AM 46.0750 5.8230 239° Southwest 288 331 10,900 2,250 Climbing FlightAware ADS-B
Mon 06:43:31 AM 46.0400 5.7470 236° Southwest 321 369 12,500 1,920 Climbing FlightAware ADS-B
Mon 06:44:01 AM 46.0160 5.6960 236° Southwest 346 398 13,300 2,080 Climbing FlightAware ADS-B
Mon 06:44:46 AM 45.9710 5.6010 236° Southwest 374 430 15,100 2,400 Climbing FlightAware ADS-B
Mon 06:45:21 AM 45.9410 5.5360 236° Southwest 376 433 16,500 2,649 Climbing FlightAware ADS-B
Mon 06:46:03 AM 45.8970 5.4340 238° Southwest 392 451 18,500 2,676 Climbing FlightAware ADS-B
Mon 06:46:35 AM 45.8660 5.3640 238° Southwest 397 457 19,800 2,167 Climbing FlightAware ADS-B
Mon 06:47:15 AM 45.8290 5.2710 240° Southwest 409 471 21,100 2,000 Climbing FlightAware ADS-B
Mon 06:47:35 AM 45.8200 5.2210 256° West 412 474 21,800 2,291 Climbing FlightAware ADS-B
Mon 06:48:10 AM 45.8210 5.1310 271° West 413 475 23,200 2,500 Climbing FlightAware ADS-B
Mon 06:48:47 AM 45.8250 5.0200 273° West 414 476 24,800 2,197 Climbing FlightAware ADS-B
Mon 06:49:21 AM 45.8290 4.9290 274° West 419 482 25,800 1,029 Climbing FlightAware ADS-B
Mon 06:49:57 AM 45.8340 4.8290 274° West 422 486 26,000 167 Climbing FlightAware ADS-B
Mon 06:50:33 AM 45.8380 4.7280 273° West 421 484 26,000 794 Level FlightAware ADS-B
Mon 06:51:05 AM 45.8410 4.6390 273° West 424 488 26,900 2,206 Climbing FlightAware ADS-B
Mon 06:51:41 AM 45.8450 4.5390 273° West 415 478 28,500 2,500 Climbing FlightAware ADS-B
Mon 06:52:17 AM 45.8490 4.4420 273° West 407 468 29,900 2,294 Climbing FlightAware ADS-B
Mon 06:52:49 AM 45.8520 4.3590 273° West 398 458 31,100 1,853 Climbing FlightAware ADS-B
Mon 06:53:25 AM 45.8560 4.2610 273° West 398 458 32,000 750 Climbing FlightAware ADS-B
Mon 06:54:01 AM 45.8600 4.1700 274° West 402 463 32,000  Level FlightAware ADS-B
Mon 06:54:37 AM 45.8710 4.0740 279° West 401 461 32,000  Level FlightAware ADS-B
Mon 06:55:09 AM 45.8800 3.9910 279° West 396 456 32,000  Level FlightAware ADS-B
Mon 06:55:43 AM 45.8890 3.9040 278° West 394 453 32,000  Level FlightAware ADS-B
Mon 06:56:21 AM 45.8980 3.8080 278° West 396 456 32,000  Level FlightAware ADS-B
Mon 06:56:52 AM 45.9050 3.7270 277° West 395 455 32,000  Level FlightAware ADS-B
Mon 06:57:25 AM 45.9140 3.6350 278° West 395 455 32,000  Level FlightAware ADS-B
Mon 06:58:05 AM 45.9240 3.5380 278° West 395 455 32,000  Level FlightAware ADS-B
Mon 06:58:40 AM 45.9330 3.4420 278° West 393 452 32,000  Level FlightAware ADS-B
Mon 06:59:12 AM 45.9420 3.3620 279° West 393 452 32,000  Level FlightAware ADS-B
Mon 06:59:50 AM 45.9520 3.2670 279° West 392 451 32,000  Level FlightAware ADS-B
Mon 07:00:24 AM 45.9600 3.1790 277° West 390 449 32,000  Level FlightAware ADS-B
Mon 07:00:59 AM 45.9690 3.0920 278° West 388 447 32,000  Level FlightAware ADS-B
Mon 07:01:39 AM 45.9790 2.9900 278° West 388 447 32,000  Level FlightAware ADS-B
Mon 07:02:14 AM 45.9880 2.9040 279° West 390 449 32,000  Level FlightAware ADS-B
Mon 07:02:49 AM 45.9950 2.8120 276° West 391 450 32,000  Level FlightAware ADS-B
Mon 07:03:24 AM 45.9940 2.7150 269° West 393 452 32,000  Level FlightAware ADS-B
Mon 07:04:23 AM 45.9930 2.5720 269° West 392 451 32,000  Level FlightAware ADS-B
Mon 07:05:08 AM 45.9920 2.4450 269° West 392 451 32,000  Level FlightAware ADS-B
Mon 07:05:39 AM 45.9910 2.3630 269° West 392 451 32,000  Level FlightAware ADS-B
Mon 07:06:16 AM 45.9900 2.2650 269° West 393 452 32,000  Level FlightAware ADS-B
Mon 07:06:45 AM 45.9890 2.1910 269° West 393 452 32,000  Level FlightAware ADS-B
Mon 07:07:24 AM 45.9870 2.0930 268° West 394 453 32,000  Level FlightAware ADS-B
Mon 07:08:01 AM 45.9860 1.9950 269° West 394 453 32,000  Level FlightAware ADS-B
Mon 07:08:36 AM 45.9840 1.9010 268° West 393 452 32,000  Level FlightAware ADS-B
Mon 07:09:12 AM 45.9830 1.8100 269° West 392 451 32,000  Level FlightAware ADS-B
Mon 07:09:48 AM 45.9810 1.7150 268° West 391 450 32,000  Level FlightAware ADS-B
Mon 07:10:34 AM 45.9790 1.5990 269° West 388 447 32,000  Level FlightAware ADS-B
Mon 07:11:09 AM 45.9770 1.5110 268° West 386 444 32,000  Level FlightAware ADS-B
Mon 07:11:41 AM 45.9750 1.4390 268° West 385 443 32,000  Level FlightAware ADS-B
Mon 07:12:19 AM 45.9730 1.3340 268° West 383 441 32,000  Level FlightAware ADS-B
Mon 07:12:54 AM 45.9710 1.2410 268° West 382 440 32,000  Level FlightAware ADS-B
Mon 07:13:29 AM 45.9690 1.1580 268° West 382 440 32,000  Level FlightAware ADS-B
Mon 07:14:04 AM 45.9670 1.0690 268° West 381 438 32,000  Level FlightAware ADS-B
Mon 07:14:39 AM 45.9640 0.9800 267° West 380 437 32,000  Level FlightAware ADS-B
Mon 07:15:14 AM 45.9620 0.8870 268° West 380 437 32,000  Level FlightAware ADS-B
Mon 07:15:49 AM 45.9590 0.8020 267° West 380 437 32,000  Level FlightAware ADS-B
Mon 07:16:24 AM 45.9560 0.7120 267° West 379 436 32,000  Level FlightAware ADS-B
Mon 07:16:59 AM 45.9530 0.6260 267° West 380 437 32,000  Level FlightAware ADS-B
Mon 07:17:34 AM 45.9500 0.5370 267° West 378 435 32,000  Level FlightAware ADS-B
Mon 07:18:04 AM 45.9470 0.4620 267° West 378 435 32,000  Level FlightAware ADS-B
Mon 07:18:49 AM 45.9440 0.3510 268° West 378 435 32,000  Level FlightAware ADS-B
Mon 07:19:24 AM 45.9410 0.2600 267° West 380 437 32,000  Level FlightAware ADS-B
Mon 07:20:04 AM 45.9370 0.1670 266° West 382 440 32,000  Level FlightAware ADS-B
Mon 07:20:34 AM 45.9350 0.0830 268° West 384 442 32,000  Level FlightAware ADS-B
Mon 07:21:09 AM 45.9320 -0.0020 267° West 387 445 32,000  Level FlightAware ADS-B
Mon 07:21:44 AM 45.9280 -0.0970 267° West 391 450 32,000  Level FlightAware ADS-B
Mon 07:22:19 AM 45.9250 -0.1830 267° West 393 452 32,000  Level FlightAware ADS-B
Mon 07:23:04 AM 45.9210 -0.3010 267° West 395 455 32,000  Level FlightAware ADS-B
Mon 07:23:39 AM 45.9170 -0.3930 266° West 397 457 32,000  Level FlightAware ADS-B
Mon 07:24:14 AM 45.9130 -0.4890 267° West 398 458 32,000  Level FlightAware ADS-B
Mon 07:24:54 AM 45.9090 -0.5890 267° West 399 459 32,000  Level FlightAware ADS-B
Mon 07:25:29 AM 45.9060 -0.6810 267° West 400 460 32,000  Level FlightAware ADS-B
Mon 07:26:04 AM 45.9020 -0.7720 266° West 401 461 32,000  Level FlightAware ADS-B
Mon 07:26:39 AM 45.8980 -0.8680 267° West 402 463 32,000  Level FlightAware ADS-B
Mon 07:27:14 AM 45.8930 -0.9610 266° West 403 464 32,000  Level FlightAware ADS-B
Mon 07:27:54 AM 45.8890 -1.0600 267° West 404 465 32,000  Level FlightAware ADS-B
Mon 07:28:30 AM 45.8880 -1.1550 269° West 400 460 32,000  Level FlightAware ADS-B
Mon 07:29:14 AM 45.8930 -1.2780 273° West 398 458 32,000  Level FlightAware ADS-B
Mon 07:29:49 AM 45.8980 -1.3720 274° West 399 459 32,000  Level FlightAware ADS-B
Mon 07:30:30 AM 45.9040 -1.4770 275° West 399 459 32,000  Level FlightAware ADS-B
Mon 07:31:05 AM 45.9080 -1.5740 273° West 401 461 32,000  Level FlightAware ADS-B
Mon 07:31:40 AM 45.9120 -1.6620 274° West 402 463 32,000  Level FlightAware ADS-B
Mon 07:32:15 AM 45.9190 -1.7610 276° West 397 457 32,000  Level FlightAware ADS-B
Mon 07:32:50 AM 45.9390 -1.8490 288° West 391 450 32,000  Level FlightAware ADS-B
Mon 07:33:25 AM 45.9680 -1.9280 298° West 390 449 32,000  Level FlightAware ADS-B
Mon 07:34:00 AM 45.9980 -2.0090 298° West 389 448 32,000  Level FlightAware ADS-B
Mon 07:34:35 AM 46.0280 -2.0880 299° West 389 448 32,000  Level FlightAware ADS-B
Mon 07:35:10 AM 46.0550 -2.1620 298° West 390 449 32,000  Level FlightAware ADS-B
Mon 07:35:55 AM 46.0960 -2.2710 299° West 390 449 32,000 80 Level FlightAware ADS-B
Mon 07:36:25 AM 46.1190 -2.3350 297° West 391 450 32,100 1,105 Climbing FlightAware ADS-B
Mon 07:37:11 AM 46.1600 -2.4460 298° West 385 443 33,400 1,390 Climbing FlightAware ADS-B
Mon 07:37:47 AM 46.1900 -2.5270 298° West 382 440 34,000 474 Climbing FlightAware ADS-B
Mon 07:38:27 AM 46.2220 -2.6150 298° West 377 434 34,000  Level FlightAware ADS-B
Mon 07:38:58 AM 46.2460 -2.6830 297° West 378 435 34,000  Level FlightAware ADS-B
Mon 07:39:37 AM 46.2790 -2.7720 298° West 379 436 34,000  Level FlightAware ADS-B
Mon 07:40:13 AM 46.3080 -2.8530 297° West 381 438 34,000 343 Level FlightAware ADS-B
Mon 07:40:47 AM 46.3340 -2.9260 297° West 381 438 34,400 870 Climbing FlightAware ADS-B
Mon 07:41:22 AM 46.3630 -3.0090 297° West 380 437 35,000 507 Climbing FlightAware ADS-B
Mon 07:41:58 AM 46.3930 -3.0900 298° West 376 433 35,000  Level FlightAware ADS-B
Mon 07:42:32 AM 46.4200 -3.1670 297° West 376 433 35,000  Level FlightAware ADS-B
Mon 07:43:08 AM 46.4480 -3.2470 297° West 375 432 35,000  Level FlightAware ADS-B
Mon 07:43:44 AM 46.4760 -3.3270 297° West 377 434 35,000  Level FlightAware ADS-B
Mon 07:44:18 AM 46.5040 -3.4040 298° West 377 434 35,000  Level FlightAware ADS-B
Mon 07:44:54 AM 46.5320 -3.4860 296° West 377 434 35,000  Level FlightAware ADS-B
Mon 07:45:26 AM 46.5570 -3.5560 297° West 378 435 35,000  Level FlightAware ADS-B
Mon 07:46:02 AM 46.5850 -3.6360 297° West 378 435 35,000  Level FlightAware ADS-B
Mon 07:46:38 AM 46.6140 -3.7200 297° West 379 436 35,000  Level FlightAware ADS-B
Mon 07:47:12 AM 46.6410 -3.7960 297° West 380 437 35,000  Level FlightAware ADS-B
Mon 07:47:48 AM 46.6700 -3.8800 297° West 380 437 35,000  Level FlightAware ADS-B
Mon 07:48:24 AM 46.6980 -3.9620 296° West 381 438 35,000  Level FlightAware ADS-B
Mon 07:48:56 AM 46.7230 -4.0350 297° West 381 438 35,000  Level FlightAware ADS-B
Mon 07:49:32 AM 46.7520 -4.1180 297° West 381 438 35,000  Level FlightAware ADS-B
Mon 07:50:10 AM 46.7810 -4.2050 296° West 382 440 35,000  Level FlightAware ADS-B
Mon 07:50:42 AM 46.8070 -4.2790 297° West 382 440 35,000  Level FlightAware ADS-B
Mon 07:51:18 AM 46.8350 -4.3620 296° West 382 440 35,000  Level FlightAware ADS-B
Mon 07:51:54 AM 46.8630 -4.4450 296° West 382 440 35,000  Level FlightAware ADS-B
Mon 07:52:30 AM 46.8920 -4.5290 297° West 383 441 35,000  Level FlightAware ADS-B
Mon 07:53:02 AM 46.9170 -4.6040 296° West 384 442 35,000  Level FlightAware ADS-B
Mon 07:53:38 AM 46.9450 -4.6880 296° West 385 443 35,000  Level FlightAware ADS-B
Mon 07:54:10 AM 46.9690 -4.7600 296° West 385 443 35,000  Level FlightAware ADS-B
Mon 07:54:46 AM 46.9980 -4.8480 296° West 385 443 35,000  Level FlightAware ADS-B
Mon 07:55:22 AM 47.0260 -4.9320 296° West 386 444 35,000  Level FlightAware ADS-B
Mon 07:55:56 AM 47.0530 -5.0120 296° West 387 445 35,000  Level FlightAware ADS-B
Mon 07:56:32 AM 47.0800 -5.0950 296° West 387 445 35,000  Level FlightAware ADS-B
Mon 07:57:09 AM 47.1090 -5.1820 296° West 387 445 35,000  Level FlightAware ADS-B
Mon 07:57:40 AM 47.1330 -5.2560 296° West 387 445 35,000  Level FlightAware ADS-B
Mon 07:58:17 AM 47.1610 -5.3420 296° West 387 445 35,000  Level FlightAware ADS-B
Mon 07:58:53 AM 47.1890 -5.4270 296° West 387 445 35,000  Level FlightAware ADS-B
Mon 07:59:28 AM 47.2160 -5.5130 295° West 387 445 35,000  Level FlightAware ADS-B
Mon 08:00:00 AM 47.2400 -5.5870 296° West 387 445 35,000  Level FlightAware ADS-B
Mon 08:00:38 AM 47.2700 -5.6780 296° West 388 447 35,000  Level FlightAware ADS-B
Mon 08:01:14 AM 47.2970 -5.7630 295° West 389 448 35,000  Level FlightAware ADS-B
Mon 08:01:46 AM 47.3220 -5.8400 296° West 389 448 35,000  Level FlightAware ADS-B
Mon 08:02:22 AM 47.3500 -5.9270 295° West 389 448 35,000  Level FlightAware ADS-B
Mon 08:03:00 AM 47.3790 -6.0180 295° West 390 449 35,000  Level FlightAware ADS-B
Mon 08:03:32 AM 47.4020 -6.0900 295° West 390 449 35,000  Level FlightAware ADS-B
Mon 08:04:08 AM 47.4310 -6.1800 295° West 391 450 35,000  Level FlightAware ADS-B
Mon 08:04:44 AM 47.4580 -6.2660 295° West 391 450 35,000  Level FlightAware ADS-B
Mon 08:05:20 AM 47.4860 -6.3550 295° West 391 450 35,000  Level FlightAware ADS-B
Mon 08:05:50 AM 47.5100 -6.4280 296° West 392 451 35,000  Level FlightAware ADS-B
Mon 08:06:27 AM 47.5350 -6.5080 295° West 392 451 35,000 289 Level FlightAware ADS-B
Mon 08:07:13 AM 47.5710 -6.6250 295° West 394 453 35,400 619 Climbing FlightAware ADS-B
Mon 08:08:04 AM 47.6090 -6.7450 295° West 393 452 36,000 367 Climbing FlightAware ADS-B
Mon 08:08:51 AM 47.6410 -6.8480 295° West 392 451 36,000  Level FlightAware ADS-B
Mon 08:09:31 AM 47.6660 -6.9310 294° West 392 451 36,000  Level FlightAware ADS-B
Mon 08:10:09 AM 47.6900 -7.0110 294° West 392 451 36,000  Level FlightAware ADS-B
Mon 08:10:45 AM 47.7120 -7.0860 294° West 392 451 36,000  Level FlightAware ADS-B
Mon 08:11:24 AM 47.7610 -7.2400 295° West 36,000  Level FlightAware ADS-B
Mon 08:11:52 AM 47.7750 -7.2840 295° West 390 449 36,000  Level FlightAware ADS-B
Mon 08:12:29 AM 47.8100 -7.3990 294° West 391 450 36,000  Level FlightAware ADS-B
Mon 08:13:21 AM 47.8430 -7.5080 294° West 392 451 36,000  Level FlightAware ADS-B
Mon 08:13:57 AM 47.8650 -7.5840 293° West 392 451 36,000  Level FlightAware ADS-B
Mon 08:14:29 AM 47.8260 -7.4520 114° Southeast 36,000  Level FlightAware ADS-B
Mon 08:16:39 AM 47.9890 -8.0230 293° West 400 460 36,000  Level FlightAware ADS-B
Mon 08:17:14 AM 47.9920 -8.1130 273° West 404 465 36,000  Level FlightAware ADS-B
Mon 08:17:53 AM 47.9920 -8.2060 270° West 404 465 36,000  Level FlightAware ADS-B
Mon 08:18:30 AM 47.9920 -8.2940 270° West 404 465 36,000  Level FlightAware ADS-B
Mon 08:19:06 AM 47.9910 -8.3790 269° West 404 465 36,000  Level FlightAware ADS-B
Mon 08:19:42 AM 47.9910 -8.4650 270° West 404 465 36,000  Level FlightAware ADS-B
Mon 08:20:18 AM 47.9910 -8.5500 270° West 404 465 36,000  Level FlightAware ADS-B
Mon 08:20:54 AM 47.9910 -8.6360 270° West 404 465 36,000  Level FlightAware ADS-B
Mon 08:21:31 AM 47.9910 -8.7230 270° West 404 465 36,000  Level FlightAware ADS-B
Mon 08:22:07 AM 47.9910 -8.8090 270° West 404 465 36,000  Level FlightAware ADS-B
Mon 08:22:55 AM 47.9910 -8.9230 270° West 404 465 36,000  Level FlightAware ADS-B
Mon 08:23:49 AM 48.0190 -9.1920 279° West 406 467 36,000  Level FlightAware ADS-B
Mon 08:24:26 AM 48.0210 -9.2810 272° West 406 467 36,000  Level FlightAware ADS-B
Mon 08:25:02 AM 48.0230 -9.3670 272° West 406 467 36,000  Level FlightAware ADS-B
Mon 08:25:38 AM 48.0250 -9.4530 272° West 406 467 36,000  Level FlightAware ADS-B
Mon 08:26:15 AM 48.0270 -9.5410 272° West 406 467 36,000  Level FlightAware ADS-B
Mon 08:26:51 AM 48.0290 -9.6270 272° West 406 467 36,000  Level FlightAware ADS-B
Mon 08:27:27 AM 48.0310 -9.7130 272° West 406 467 36,000  Level FlightAware ADS-B
Mon 08:28:03 AM 48.0330 -9.7990 272° West 406 467 36,000  Level FlightAware ADS-B
Mon 08:28:40 AM 48.0350 -9.8870 272° West 406 467 36,000  Level FlightAware ADS-B
Mon 08:29:16 AM 48.0370 -9.9730 272° West 406 467 36,000  Level FlightAware ADS-B
Mon 08:29:50 AM 48.0390 -10.0540 272° West 406 467 36,000  Level FlightAware ADS-B
Mon 08:30:26 AM 48.0410 -10.1400 272° West 406 467 36,000  Level FlightAware ADS-B
Mon 08:31:02 AM 48.0430 -10.2260 272° West 406 467 36,000  Level FlightAware ADS-B
Mon 08:31:38 AM 48.0450 -10.3120 272° West 406 467 36,000  Level FlightAware ADS-B
Mon 08:32:14 AM 48.0470 -10.3980 272° West 406 467 36,000  Level FlightAware ADS-B
Mon 08:32:50 AM 48.0490 -10.4830 272° West 406 467 36,000  Level FlightAware ADS-B
Mon 08:35:00 AM 48.1359 -10.8223 291° West  Level Estimated
Mon 08:36:00 AM 48.1757 -10.9793 291° West  Level Estimated
Mon 08:37:00 AM 48.2153 -11.1365 291° West  Level Estimated
Mon 08:38:00 AM 48.2547 -11.2940 291° West  Level Estimated
Mon 08:39:00 AM 48.2938 -11.4517 291° West  Level Estimated
Mon 08:40:00 AM 48.3327 -11.6097 290° West  Level Estimated
Mon 08:41:00 AM 48.3715 -11.7679 290° West  Level Estimated
Mon 08:42:00 AM 48.4100 -11.9263 290° West  Level Estimated
Mon 08:43:00 AM 48.4482 -12.0850 290° West  Level Estimated
Mon 08:44:00 AM 48.4863 -12.2439 290° West  Level Estimated
Mon 08:45:00 AM 48.5241 -12.4031 290° West  Level Estimated
Mon 08:46:00 AM 48.5618 -12.5625 290° West  Level Estimated
Mon 08:47:00 AM 48.5992 -12.7221 290° West  Level Estimated
Mon 08:48:00 AM 48.6363 -12.8819 289° West  Level Estimated
Mon 08:49:00 AM 48.6733 -13.0420 289° West  Level Estimated
Mon 08:50:00 AM 48.7100 -13.2024 289° West  Level Estimated
Mon 08:51:00 AM 48.7466 -13.3629 289° West  Level Estimated
Mon 08:52:00 AM 48.7828 -13.5237 289° West  Level Estimated
Mon 08:53:00 AM 48.8189 -13.6848 289° West  Level Estimated
Mon 08:54:00 AM 48.8548 -13.8460 289° West  Level Estimated
Mon 08:55:00 AM 48.8900 -14.0058 289° West  Level Estimated
Mon 08:56:00 AM 48.9250 -14.1659 288° West  Level Estimated
Mon 08:57:00 AM 48.9598 -14.3261 288° West  Level Estimated
Mon 08:58:00 AM 48.9944 -14.4866 288° West  Level Estimated
Mon 08:59:00 AM 49.0288 -14.6473 288° West  Level Estimated
Mon 09:00:00 AM 49.0629 -14.8082 288° West  Level Estimated
Mon 09:01:00 AM 49.0968 -14.9694 288° West  Level Estimated
Mon 09:02:00 AM 49.1305 -15.1307 288° West  Level Estimated
Mon 09:03:00 AM 49.1640 -15.2923 288° West  Level Estimated
Mon 09:04:00 AM 49.1972 -15.4541 288° West  Level Estimated
Mon 09:05:00 AM 49.2302 -15.6161 287° West  Level Estimated
Mon 09:06:00 AM 49.2630 -15.7783 287° West  Level Estimated
Mon 09:07:00 AM 49.2955 -15.9408 287° West  Level Estimated
Mon 09:08:00 AM 49.3279 -16.1035 287° West  Level Estimated
Mon 09:09:00 AM 49.3600 -16.2663 287° West  Level Estimated
Mon 09:10:00 AM 49.3918 -16.4294 287° West  Level Estimated
Mon 09:11:00 AM 49.4235 -16.5927 287° West  Level Estimated
Mon 09:12:00 AM 49.4549 -16.7562 287° West  Level Estimated
Mon 09:13:00 AM 49.4860 -16.9199 286° West  Level Estimated
Mon 09:14:00 AM 49.5170 -17.0838 286° West  Level Estimated
Mon 09:15:00 AM 49.5477 -17.2480 286° West  Level Estimated
Mon 09:16:00 AM 49.5782 -17.4123 286° West  Level Estimated
Mon 09:17:00 AM 49.6086 -17.5776 286° West  Level Estimated
Mon 09:18:00 AM 49.6387 -17.7431 286° West  Level Estimated
Mon 09:19:00 AM 49.6687 -17.9088 286° West  Level Estimated
Mon 09:20:00 AM 49.6983 -18.0748 286° West  Level Estimated
Mon 09:21:00 AM 49.7278 -18.2409 285° West  Level Estimated
Mon 09:22:00 AM 49.7570 -18.4072 285° West  Level Estimated
Mon 09:23:00 AM 49.7859 -18.5737 285° West  Level Estimated
Mon 09:24:00 AM 49.8147 -18.7404 285° West  Level Estimated
Mon 09:25:00 AM 49.8432 -18.9074 285° West  Level Estimated
Mon 09:26:00 AM 49.8714 -19.0745 285° West  Level Estimated
Mon 09:27:00 AM 49.8994 -19.2418 285° West  Level Estimated
Mon 09:27:00 AM 49.0000 -20.0000 291° West 417 480 36,000  Level ETMS Enhanced Traffic Management System
Mon 09:28:00 AM 49.9272 -19.4093 285° West  Level Estimated
Mon 09:29:00 AM 49.9547 -19.5770 284° West  Level Estimated
Mon 09:30:00 AM 49.9820 -19.7449 284° West  Level Estimated
Mon 09:31:00 AM 50.0090 -19.9130 284° West  Level Estimated
Mon 09:32:00 AM 50.0359 -20.0812 284° West  Level Estimated
Mon 09:33:00 AM 49.3260 -21.3282 290° West 417 480 36,000  Level FlightAware Transoceanic
Mon 09:34:00 AM 49.3657 -21.4954 290° West 417 480 36,000  Level FlightAware Transoceanic
Mon 09:35:00 AM 49.4051 -21.6630 290° West 417 480 36,000  Level FlightAware Transoceanic
Mon 09:36:00 AM 49.4443 -21.8307 290° West 417 480 36,000  Level FlightAware Transoceanic
Mon 09:37:00 AM 49.4833 -21.9988 290° West 417 480 36,000  Level FlightAware Transoceanic
Mon 09:38:00 AM 49.5220 -22.1671 289° West 417 480 36,000  Level FlightAware Transoceanic
Mon 09:39:00 AM 49.5604 -22.3357 289° West 417 480 36,000  Level FlightAware Transoceanic
Mon 09:40:00 AM 49.5986 -22.5046 289° West 417 480 36,000  Level FlightAware Transoceanic
Mon 09:41:00 AM 49.6366 -22.6737 289° West 417 480 36,000  Level FlightAware Transoceanic
Mon 09:42:00 AM 49.6743 -22.8430 289° West 417 480 36,000  Level FlightAware Transoceanic
Mon 09:43:00 AM 49.7118 -23.0127 289° West 417 480 36,000  Level FlightAware Transoceanic
Mon 09:44:00 AM 49.7490 -23.1826 289° West 417 480 36,000  Level FlightAware Transoceanic
Mon 09:45:00 AM 49.7860 -23.3527 289° West 417 480 36,000  Level FlightAware Transoceanic
Mon 09:46:00 AM 49.8227 -23.5232 288° West 417 480 36,000  Level FlightAware Transoceanic
Mon 09:47:00 AM 49.8592 -23.6938 288° West 417 480 36,000  Level FlightAware Transoceanic
Mon 09:48:00 AM 49.8954 -23.8648 288° West 417 480 36,000  Level FlightAware Transoceanic
Mon 09:49:00 AM 49.9314 -24.0360 288° West 417 480 36,000  Level FlightAware Transoceanic
Mon 09:50:00 AM 49.9671 -24.2074 288° West 417 480 36,000  Level FlightAware Transoceanic
Mon 09:51:00 AM 50.0026 -24.3791 288° West 417 480 36,000  Level FlightAware Transoceanic
Mon 09:52:00 AM 50.0378 -24.5511 288° West 417 480 36,000  Level FlightAware Transoceanic
Mon 09:53:00 AM 50.0728 -24.7233 287° West 417 480 36,000  Level FlightAware Transoceanic
Mon 09:54:00 AM 50.1075 -24.8957 287° West 417 480 36,000  Level FlightAware Transoceanic
Mon 09:55:00 AM 50.1419 -25.0684 287° West 417 480 36,000  Level FlightAware Transoceanic
Mon 09:56:00 AM 50.1761 -25.2414 287° West 417 480 36,000  Level FlightAware Transoceanic
Mon 09:57:00 AM 50.2101 -25.4146 287° West 417 480 36,000  Level FlightAware Transoceanic
Mon 09:58:00 AM 50.2437 -25.5880 287° West 417 480 36,000  Level FlightAware Transoceanic
Mon 09:59:00 AM 50.2772 -25.7617 287° West 417 480 36,000  Level FlightAware Transoceanic
Mon 10:00:00 AM 50.3103 -25.9356 287° West 417 480 36,000  Level FlightAware Transoceanic
Mon 10:01:00 AM 50.3432 -26.1098 286° West 417 480 36,000  Level FlightAware Transoceanic
Mon 10:02:00 AM 50.3759 -26.2842 286° West 417 480 36,000  Level FlightAware Transoceanic
Mon 10:03:00 AM 50.4082 -26.4589 286° West 417 480 36,000  Level FlightAware Transoceanic
Mon 10:04:00 AM 50.4404 -26.6338 286° West 417 480 36,000  Level FlightAware Transoceanic
Mon 10:05:00 AM 50.4722 -26.8089 286° West 417 480 36,000  Level FlightAware Transoceanic
Mon 10:06:00 AM 50.5038 -26.9843 286° West 417 480 36,000  Level FlightAware Transoceanic
Mon 10:07:00 AM 50.5351 -27.1599 286° West 417 480 36,000  Level FlightAware Transoceanic
Mon 10:08:00 AM 50.5662 -27.3357 285° West 417 480 36,000  Level FlightAware Transoceanic
Mon 10:09:00 AM 50.5970 -27.5117 285° West 417 480 36,000  Level FlightAware Transoceanic
Mon 10:10:00 AM 50.6275 -27.6880 285° West 417 480 36,000  Level FlightAware Transoceanic
Mon 10:11:00 AM 50.6578 -27.8645 285° West 417 480 36,000  Level FlightAware Transoceanic
Mon 10:12:00 AM 50.6878 -28.0413 285° West 417 480 36,000  Level FlightAware Transoceanic
Mon 10:13:00 AM 50.7175 -28.2183 285° West 417 480 36,000  Level FlightAware Transoceanic
Mon 10:14:00 AM 50.7470 -28.3955 285° West 417 480 36,000  Level FlightAware Transoceanic
Mon 10:15:00 AM 50.7762 -28.5729 285° West 417 480 36,000  Level FlightAware Transoceanic
Mon 10:16:00 AM 50.8051 -28.7505 284° West 417 480 36,000  Level FlightAware Transoceanic
Mon 10:17:00 AM 50.8338 -28.9284 284° West 417 480 36,000  Level FlightAware Transoceanic
Mon 10:18:00 AM 50.8622 -29.1064 284° West 417 480 36,000  Level FlightAware Transoceanic
Mon 10:19:00 AM 50.8903 -29.2847 284° West 417 480 36,000  Level FlightAware Transoceanic
Mon 10:20:00 AM 50.9181 -29.4632 284° West 417 480 36,000  Level FlightAware Transoceanic
Mon 10:21:00 AM 50.9457 -29.6419 284° West 417 480 36,000  Level FlightAware Transoceanic
Mon 10:22:00 AM 50.9730 -29.8209 284° West 417 480 36,000  Level FlightAware Transoceanic
Mon 10:23:00 AM 50.9989 -29.9929 284° West  Level FlightAware Approximate
Mon 10:24:00 AM 51.0246 -30.1652 283° West  Level FlightAware Approximate
Mon 10:25:00 AM 51.0229 -30.1583 283° West  Level FlightAware Approximate
Mon 10:26:00 AM 51.0476 -30.3310 283° West  Level FlightAware Approximate
Mon 10:26:00 AM 51.0000 -30.0000 283° West 427 491 36,000  Level ETMS Enhanced Traffic Management System
Mon 10:27:00 AM 51.0721 -30.5039 283° West  Level FlightAware Approximate
Mon 10:28:00 AM 51.0964 -30.6770 283° West  Level FlightAware Approximate
Mon 10:29:00 AM 51.1203 -30.8502 282° West  Level FlightAware Approximate
Mon 10:30:00 AM 51.1440 -31.0236 282° West  Level FlightAware Approximate
Mon 10:31:00 AM 51.1675 -31.1972 282° West  Level FlightAware Approximate
Mon 10:32:00 AM 51.1907 -31.3710 282° West  Level FlightAware Approximate
Mon 10:33:00 AM 51.2532 -31.8505 282° West 427 491 36,000  Level FlightAware Transoceanic
Mon 10:34:00 AM 51.2770 -32.0366 281° West 427 491 36,000  Level FlightAware Transoceanic
Mon 10:35:00 AM 51.3004 -32.2230 281° West 427 491 36,000  Level FlightAware Transoceanic
Mon 10:36:00 AM 51.3235 -32.4095 281° West 427 491 36,000  Level FlightAware Transoceanic
Mon 10:37:00 AM 51.3463 -32.5962 281° West 427 491 36,000  Level FlightAware Transoceanic
Mon 10:38:00 AM 51.3688 -32.7831 281° West 427 491 36,000  Level FlightAware Transoceanic
Mon 10:39:00 AM 51.3911 -32.9702 281° West 427 491 36,000  Level FlightAware Transoceanic
Mon 10:40:00 AM 51.4130 -33.1574 281° West 427 491 36,000  Level FlightAware Transoceanic
Mon 10:41:00 AM 51.4346 -33.3449 280° West 427 491 36,000  Level FlightAware Transoceanic
Mon 10:42:00 AM 51.4560 -33.5325 280° West 427 491 36,000  Level FlightAware Transoceanic
Mon 10:43:00 AM 51.4770 -33.7203 280° West 427 491 36,000  Level FlightAware Transoceanic
Mon 10:44:00 AM 51.4977 -33.9082 280° West 427 491 36,000  Level FlightAware Transoceanic
Mon 10:45:00 AM 51.5182 -34.0964 280° West 427 491 36,000  Level FlightAware Transoceanic
Mon 10:46:00 AM 51.5383 -34.2847 280° West 427 491 36,000  Level FlightAware Transoceanic
Mon 10:47:00 AM 51.5581 -34.4731 280° West 427 491 36,000  Level FlightAware Transoceanic
Mon 10:48:00 AM 51.5776 -34.6618 279° West 427 491 36,000  Level FlightAware Transoceanic
Mon 10:49:00 AM 51.5969 -34.8506 279° West 427 491 36,000  Level FlightAware Transoceanic
Mon 10:50:00 AM 51.6158 -35.0395 279° West 427 491 36,000  Level FlightAware Transoceanic
Mon 10:51:00 AM 51.6344 -35.2286 279° West 427 491 36,000  Level FlightAware Transoceanic
Mon 10:52:00 AM 51.6527 -35.4179 279° West 427 491 36,000  Level FlightAware Transoceanic
Mon 10:53:00 AM 51.6707 -35.6073 279° West 427 491 36,000  Level FlightAware Transoceanic
Mon 10:54:00 AM 51.6884 -35.7968 278° West 427 491 36,000  Level FlightAware Transoceanic
Mon 10:55:00 AM 51.7058 -35.9865 278° West 427 491 36,000  Level FlightAware Transoceanic
Mon 10:56:00 AM 51.7229 -36.1764 278° West 427 491 36,000  Level FlightAware Transoceanic
Mon 10:57:00 AM 51.7397 -36.3664 278° West 427 491 36,000  Level FlightAware Transoceanic
Mon 10:58:00 AM 51.7562 -36.5565 278° West 427 491 36,000  Level FlightAware Transoceanic
Mon 10:59:00 AM 51.7724 -36.7468 278° West 427 491 36,000  Level FlightAware Transoceanic
Mon 11:00:00 AM 51.7882 -36.9372 278° West 427 491 36,000  Level FlightAware Transoceanic
Mon 11:01:00 AM 51.8038 -37.1277 277° West 427 491 36,000  Level FlightAware Transoceanic
Mon 11:02:00 AM 51.8190 -37.3184 277° West 427 491 36,000  Level FlightAware Transoceanic
Mon 11:03:00 AM 51.8340 -37.5092 277° West 427 491 36,000  Level FlightAware Transoceanic
Mon 11:04:00 AM 51.8486 -37.7001 277° West 427 491 36,000  Level FlightAware Transoceanic
Mon 11:05:00 AM 51.8629 -37.8911 277° West 427 491 36,000  Level FlightAware Transoceanic
Mon 11:06:00 AM 51.8770 -38.0823 277° West 427 491 36,000  Level FlightAware Transoceanic
Mon 11:07:00 AM 51.8907 -38.2736 277° West 427 491 36,000  Level FlightAware Transoceanic
Mon 11:08:00 AM 51.9041 -38.4650 276° West 427 491 36,000  Level FlightAware Transoceanic
Mon 11:09:00 AM 51.9171 -38.6565 276° West 427 491 36,000  Level FlightAware Transoceanic
Mon 11:10:00 AM 51.9299 -38.8481 276° West 427 491 36,000  Level FlightAware Transoceanic
Mon 11:11:00 AM 51.9424 -39.0398 276° West 427 491 36,000  Level FlightAware Transoceanic
Mon 11:12:00 AM 51.9545 -39.2317 276° West 427 491 36,000  Level FlightAware Transoceanic
Mon 11:13:00 AM 51.9664 -39.4236 276° West 427 491 36,000  Level FlightAware Transoceanic
Mon 11:14:00 AM 51.9779 -39.6156 275° West 427 491 36,000  Level FlightAware Transoceanic
Mon 11:15:00 AM 51.9891 -39.8078 275° West 427 491 36,000  Level FlightAware Transoceanic
Mon 11:16:00 AM 51.9993 -39.9879 275° West  Level FlightAware Approximate
Mon 11:17:00 AM 52.0093 -40.1681 275° West  Level FlightAware Approximate
Mon 11:17:00 AM 52.0000 -40.0000 265° West 419 482 36,000  Level ETMS Enhanced Traffic Management System
Mon 11:18:00 AM 51.9912 -40.1559 265° West  Level FlightAware Approximate
Mon 11:19:00 AM 51.9807 -40.3360 265° West  Level FlightAware Approximate
Mon 11:20:00 AM 51.9699 -40.5173 265° West  Level FlightAware Approximate
Mon 11:21:00 AM 51.9589 -40.6986 264° West  Level FlightAware Approximate
Mon 11:22:00 AM 51.9475 -40.8797 264° West  Level FlightAware Approximate
Mon 11:23:00 AM 51.9359 -41.0608 264° West  Level FlightAware Approximate
Mon 11:24:00 AM 51.9060 -41.5067 264° West 419 482 36,000  Level FlightAware Transoceanic
Mon 11:25:00 AM 51.8929 -41.6945 263° West 419 482 36,000  Level FlightAware Transoceanic
Mon 11:26:00 AM 51.8795 -41.8823 263° West 419 482 36,000  Level FlightAware Transoceanic
Mon 11:27:00 AM 51.8658 -42.0699 263° West 419 482 36,000  Level FlightAware Transoceanic
Mon 11:28:00 AM 51.8518 -42.2575 263° West 419 482 36,000  Level FlightAware Transoceanic
Mon 11:29:00 AM 51.8375 -42.4449 263° West 419 482 36,000  Level FlightAware Transoceanic
Mon 11:30:00 AM 51.8229 -42.6322 263° West 419 482 36,000  Level FlightAware Transoceanic
Mon 11:31:00 AM 51.8081 -42.8193 263° West 419 482 36,000  Level FlightAware Transoceanic
Mon 11:32:00 AM 51.7929 -43.0064 262° West 419 482 36,000  Level FlightAware Transoceanic
Mon 11:33:00 AM 51.7774 -43.1933 262° West 419 482 36,000  Level FlightAware Transoceanic
Mon 11:34:00 AM 51.7616 -43.3801 262° West 419 482 36,000  Level FlightAware Transoceanic
Mon 11:35:00 AM 51.7455 -43.5667 262° West 419 482 36,000  Level FlightAware Transoceanic
Mon 11:36:00 AM 51.7292 -43.7533 262° West 419 482 36,000  Level FlightAware Transoceanic
Mon 11:37:00 AM 51.7125 -43.9397 262° West 419 482 36,000  Level FlightAware Transoceanic
Mon 11:38:00 AM 51.6956 -44.1259 262° West 419 482 36,000  Level FlightAware Transoceanic
Mon 11:39:00 AM 51.6783 -44.3120 261° West 419 482 36,000  Level FlightAware Transoceanic
Mon 11:40:00 AM 51.6608 -44.4980 261° West 419 482 36,000  Level FlightAware Transoceanic
Mon 11:41:00 AM 51.6429 -44.6838 261° West 419 482 36,000  Level FlightAware Transoceanic
Mon 11:42:00 AM 51.6248 -44.8695 261° West 419 482 36,000  Level FlightAware Transoceanic
Mon 11:43:00 AM 51.6064 -45.0550 261° West 419 482 36,000  Level FlightAware Transoceanic
Mon 11:44:00 AM 51.5877 -45.2404 261° West 419 482 36,000  Level FlightAware Transoceanic
Mon 11:45:00 AM 51.5686 -45.4256 261° West 419 482 36,000  Level FlightAware Transoceanic
Mon 11:46:00 AM 51.5493 -45.6106 260° West 419 482 36,000  Level FlightAware Transoceanic
Mon 11:47:00 AM 51.5298 -45.7956 260° West 419 482 36,000  Level FlightAware Transoceanic
Mon 11:48:00 AM 51.5099 -45.9803 260° West 419 482 36,000  Level FlightAware Transoceanic
Mon 11:49:00 AM 51.4897 -46.1649 260° West 419 482 36,000  Level FlightAware Transoceanic
Mon 11:50:00 AM 51.4692 -46.3493 260° West 419 482 36,000  Level FlightAware Transoceanic
Mon 11:51:00 AM 51.4485 -46.5335 260° West 419 482 36,000  Level FlightAware Transoceanic
Mon 11:52:00 AM 51.4274 -46.7176 260° West 419 482 36,000  Level FlightAware Transoceanic
Mon 11:53:00 AM 51.4061 -46.9015 259° West 419 482 36,000  Level FlightAware Transoceanic
Mon 11:54:00 AM 51.3845 -47.0853 259° West 419 482 36,000  Level FlightAware Transoceanic
Mon 11:55:00 AM 51.3626 -47.2688 259° West 419 482 36,000  Level FlightAware Transoceanic
Mon 11:56:00 AM 51.3404 -47.4522 259° West 419 482 36,000  Level FlightAware Transoceanic
Mon 11:57:00 AM 51.3179 -47.6354 259° West 419 482 36,000  Level FlightAware Transoceanic
Mon 11:58:00 AM 51.2952 -47.8185 259° West 419 482 36,000  Level FlightAware Transoceanic
Mon 11:59:00 AM 51.2721 -48.0013 259° West 419 482 36,000  Level FlightAware Transoceanic
Mon 12:00:00 PM 51.2488 -48.1839 258° West 419 482 36,000  Level FlightAware Transoceanic
Mon 12:01:00 PM 51.2252 -48.3664 258° West 419 482 36,000  Level FlightAware Transoceanic
Mon 12:02:00 PM 51.2013 -48.5487 258° West 419 482 36,000  Level FlightAware Transoceanic
Mon 12:03:00 PM 51.1771 -48.7308 258° West 419 482 36,000  Level FlightAware Transoceanic
Mon 12:04:00 PM 51.1527 -48.9127 258° West 419 482 36,000  Level FlightAware Transoceanic
Mon 12:05:00 PM 51.1279 -49.0944 258° West 419 482 36,000  Level FlightAware Transoceanic
Mon 12:06:00 PM 51.1029 -49.2759 258° West 419 482 36,000  Level FlightAware Transoceanic
Mon 12:07:00 PM 51.0776 -49.4572 257° West 419 482 36,000  Level FlightAware Transoceanic
Mon 12:08:00 PM 51.0520 -49.6384 257° West 419 482 36,000  Level FlightAware Transoceanic
Mon 12:09:00 PM 51.0261 -49.8193 257° West 419 482 36,000  Level FlightAware Transoceanic
Mon 12:10:00 PM 51.0010 -49.9931 257° West  Level FlightAware Approximate
Mon 12:11:00 PM 50.9756 -50.1668 257° West  Level FlightAware Approximate
Mon 12:12:00 PM 50.9541 -50.1296 250° West  Level FlightAware Approximate
Mon 12:12:00 PM 51.0000 -50.0000 250° West 419 482 36,000  Level ETMS Enhanced Traffic Management System
Mon 12:13:00 PM 50.9163 -50.2962 250° West  Level FlightAware Approximate
Mon 12:13:28 PM 50.9333 -50.2167 249° West 410 472 36,000  Level Gander Center
Mon 12:14:00 PM 50.8783 -50.4626 250° West  Level FlightAware Approximate
Mon 12:14:28 PM 50.9000 -50.3833 252° West 410 472 36,000  Level Gander Center
Mon 12:15:00 PM 50.8400 -50.6287 250° West  Level FlightAware Approximate
Mon 12:15:29 PM 50.8667 -50.5500 252° West 400 460 36,200  Level Moncton Center
Mon 12:16:00 PM 50.8015 -50.7945 250° West  Level FlightAware Approximate
Mon 12:16:28 PM 50.8500 -50.7167 261° West 410 472 37,700  Level Gander Center
Mon 12:17:00 PM 50.7627 -50.9600 250° West  Level FlightAware Approximate
Mon 12:17:28 PM 50.8333 -50.9000 262° West 400 460 38,000  Level Gander Center
Mon 12:18:00 PM 50.7128 -51.2109 249° West 419 482 36,000  Descending FlightAware Transoceanic
Mon 12:18:28 PM 50.8167 -51.0667 261° West 390 449 38,000 1,364 Climbing Gander Center
Mon 12:19:28 PM 50.7833 -51.2667 255° West 400 460 38,000  Level Gander Center
Mon 12:20:28 PM 50.7500 -51.4333 253° West 400 460 38,000  Level Gander Center
Mon 12:25:54 PM 50.6360 -52.4430 253° West 410 472 38,000  Level FlightAware ADS-B
Mon 12:26:29 PM 50.6220 -52.5440 258° West 409 471 38,000  Level FlightAware ADS-B
Mon 12:27:09 PM 50.6050 -52.6600 257° West 408 470 38,000  Level FlightAware ADS-B
Mon 12:27:44 PM 50.5910 -52.7490 256° West 407 468 38,000  Level FlightAware ADS-B
Mon 12:28:29 PM 50.5710 -52.8840 257° West 406 467 38,000  Level FlightAware ADS-B
Mon 12:29:04 PM 50.5560 -52.9870 257° West 405 466 38,000  Level FlightAware ADS-B
Mon 12:29:34 PM 50.5420 -53.0780 256° West 405 466 38,000  Level FlightAware ADS-B
Mon 12:30:09 PM 50.5270 -53.1760 256° West 404 465 38,000  Level FlightAware ADS-B
Mon 12:30:44 PM 50.5130 -53.2730 257° West 404 465 38,000  Level FlightAware ADS-B
Mon 12:31:19 PM 50.4970 -53.3760 256° West 404 465 38,000  Level FlightAware ADS-B
Mon 12:31:54 PM 50.4820 -53.4740 257° West 403 464 38,000  Level FlightAware ADS-B
Mon 12:32:34 PM 50.4640 -53.5880 256° West 404 465 38,000  Level FlightAware ADS-B
Mon 12:33:04 PM 50.4510 -53.6750 257° West 404 465 38,000  Level FlightAware ADS-B
Mon 12:33:39 PM 50.4360 -53.7740 257° West 404 465 38,000  Level FlightAware ADS-B
Mon 12:34:24 PM 50.4160 -53.9010 256° West 404 465 38,000  Level FlightAware ADS-B
Mon 12:34:54 PM 50.4020 -53.9860 256° West 406 467 38,000  Level FlightAware ADS-B
Mon 12:35:34 PM 50.3850 -54.0930 256° West 406 467 38,000  Level FlightAware ADS-B
Mon 12:36:09 PM 50.3680 -54.2010 256° West 405 466 38,000  Level FlightAware ADS-B
Mon 12:36:44 PM 50.3530 -54.2970 256° West 405 466 38,000  Level FlightAware ADS-B
Mon 12:37:19 PM 50.3370 -54.3920 255° West 405 466 38,000  Level FlightAware ADS-B
Mon 12:37:49 PM 50.3230 -54.4830 256° West 407 468 38,000  Level FlightAware ADS-B
Mon 12:38:29 PM 50.3050 -54.5920 256° West 408 470 38,000  Level FlightAware ADS-B
Mon 12:39:04 PM 50.2870 -54.6980 255° West 408 470 38,000  Level FlightAware ADS-B
Mon 12:39:39 PM 50.2710 -54.7980 256° West 409 471 38,000  Level FlightAware ADS-B
Mon 12:40:14 PM 50.2540 -54.8970 255° West 409 471 38,000  Level FlightAware ADS-B
Mon 12:40:49 PM 50.2370 -54.9980 255° West 409 471 38,000  Level FlightAware ADS-B
Mon 12:41:29 PM 50.2190 -55.1080 256° West 409 471 38,000  Level FlightAware ADS-B
Mon 12:42:04 PM 50.2010 -55.2100 255° West 411 473 38,000  Level FlightAware ADS-B
Mon 12:42:44 PM 50.1820 -55.3260 256° West 413 475 38,000  Level FlightAware ADS-B
Mon 12:43:14 PM 50.1680 -55.4070 255° West 414 476 38,000  Level FlightAware ADS-B
Mon 12:43:39 PM 50.1550 -55.4830 255° West 415 478 38,000  Level FlightAware ADS-B
Mon 12:44:19 PM 50.1360 -55.5950 255° West 416 479 38,000  Level FlightAware ADS-B
Mon 12:44:54 PM 50.1180 -55.6990 255° West 417 480 38,000  Level FlightAware ADS-B
Mon 12:45:24 PM 50.1020 -55.7870 254° West 416 479 38,000  Level FlightAware ADS-B
Mon 12:46:00 PM 50.0850 -55.8830 255° West 415 478 38,000  Level FlightAware ADS-B
Mon 12:46:39 PM 50.0640 -56.0020 255° West 413 475 38,000  Level FlightAware ADS-B
Mon 12:47:09 PM 50.0490 -56.0890 255° West 414 476 38,000  Level FlightAware ADS-B
Mon 12:47:54 PM 50.0260 -56.2180 255° West 413 475 38,000  Level FlightAware ADS-B
Mon 12:48:29 PM 50.0100 -56.3090 255° West 410 472 38,000  Level FlightAware ADS-B
Mon 12:49:02 PM 49.9940 -56.3960 254° West 409 471 38,000  Level FlightAware ADS-B
Mon 12:49:39 PM 49.9720 -56.5140 254° West 407 468 38,000  Level FlightAware ADS-B
Mon 12:50:14 PM 49.9540 -56.6120 254° West 406 467 38,000  Level FlightAware ADS-B
Mon 12:50:49 PM 49.9360 -56.7110 254° West 406 467 38,000  Level FlightAware ADS-B
Mon 12:51:24 PM 49.9180 -56.8070 254° West 403 464 38,000  Level FlightAware ADS-B
Mon 12:52:09 PM 49.8960 -56.9300 255° West 399 459 38,000  Level FlightAware ADS-B
Mon 12:52:39 PM 49.8800 -57.0140 254° West 397 457 38,000  Level FlightAware ADS-B
Mon 12:53:19 PM 49.8610 -57.1170 254° West 395 455 38,000  Level FlightAware ADS-B
Mon 12:53:54 PM 49.8420 -57.2160 253° West 395 455 38,000  Level FlightAware ADS-B
Mon 12:54:29 PM 49.8240 -57.3100 254° West 393 452 38,000  Level FlightAware ADS-B
Mon 12:55:09 PM 49.8040 -57.4160 254° West 391 450 38,000  Level FlightAware ADS-B
Mon 12:55:49 PM 49.7850 -57.5160 254° West 391 450 38,000  Level FlightAware ADS-B
Mon 12:56:38 PM 49.7600 -57.6430 253° West 391 450 38,000  Level FlightAware ADS-B
Mon 12:57:14 PM 49.7410 -57.7450 254° West 395 455 38,000  Level FlightAware ADS-B
Mon 12:58:12 PM 49.7110 -57.8960 253° West 395 455 38,000  Level FlightAware ADS-B
Mon 12:58:44 PM 49.6930 -57.9910 254° West 399 459 38,000  Level FlightAware ADS-B
Mon 12:59:19 PM 49.6740 -58.0870 253° West 399 459 38,000  Level FlightAware ADS-B
Mon 01:00:09 PM 49.6450 -58.2310 253° West 400 460 38,000  Level FlightAware ADS-B
Mon 01:00:45 PM 49.6260 -58.3260 253° West 399 459 38,000  Level FlightAware ADS-B
Mon 01:01:15 PM 49.6110 -58.4040 253° West 399 459 38,000  Level FlightAware ADS-B
Mon 01:01:59 PM 49.5870 -58.5200 252° West 400 460 38,000  Level FlightAware ADS-B
Mon 01:02:39 PM 49.5640 -58.6360 253° West 401 461 38,000  Level FlightAware ADS-B
Mon 01:03:19 PM 49.5430 -58.7390 253° West 403 464 38,000  Level FlightAware ADS-B
Mon 01:04:09 PM 49.5150 -58.8770 253° West 401 461 38,000  Level FlightAware ADS-B
Mon 01:04:44 PM 49.4940 -58.9780 252° West 402 463 38,000  Level FlightAware ADS-B
Mon 01:05:19 PM 49.4760 -59.0680 253° West 401 461 38,000  Level FlightAware ADS-B
Mon 01:05:54 PM 49.4560 -59.1620 252° West 401 461 38,000  Level FlightAware ADS-B
Mon 01:06:29 PM 49.4350 -59.2600 252° West 401 461 38,000  Level FlightAware ADS-B
Mon 01:07:04 PM 49.4150 -59.3540 252° West 402 463 38,000  Level FlightAware ADS-B
Mon 01:07:44 PM 49.3930 -59.4610 253° West 403 464 38,000  Level FlightAware ADS-B
Mon 01:08:20 PM 49.3710 -59.5620 252° West 405 466 38,000  Level FlightAware ADS-B
Mon 01:08:54 PM 49.3510 -59.6550 252° West 406 467 38,000  Level FlightAware ADS-B
Mon 01:09:44 PM 49.3230 -59.7890 252° West 408 470 38,000  Level FlightAware ADS-B
Mon 01:10:14 PM 49.3040 -59.8740 251° West 409 471 38,000  Level FlightAware ADS-B
Mon 01:10:54 PM 49.2820 -59.9770 252° West 410 472 38,000  Level FlightAware ADS-B
Mon 01:11:29 PM 49.2590 -60.0810 251° West 408 470 38,000  Level FlightAware ADS-B
Mon 01:11:59 PM 49.2410 -60.1620 251° West 408 470 38,000  Level FlightAware ADS-B
Mon 01:12:39 PM 49.2200 -60.2550 251° West 408 470 38,000  Level FlightAware ADS-B
Mon 01:13:16 PM 49.2010 -60.3410 251° West 408 470 38,000  Level FlightAware ADS-B
Mon 01:13:52 PM 49.1820 -60.4250 251° West 408 470 38,000  Level FlightAware ADS-B
Mon 01:14:28 PM 49.1640 -60.5080 252° West 408 470 38,000  Level FlightAware ADS-B
Mon 01:15:05 PM 49.1440 -60.5940 250° West 408 470 38,000  Level FlightAware ADS-B
Mon 01:15:41 PM 49.1250 -60.6770 251° West 408 470 38,000  Level FlightAware ADS-B
Mon 01:16:18 PM 49.1060 -60.7630 251° West 408 470 38,000  Level FlightAware ADS-B
Mon 01:16:55 PM 49.0870 -60.8490 251° West 408 470 38,000  Level FlightAware ADS-B
Mon 01:17:30 PM 49.0680 -60.9300 250° West 408 470 38,000  Level FlightAware ADS-B
Mon 01:17:55 PM 49.0550 -60.9880 251° West 408 470 38,000  Level FlightAware ADS-B
Mon 01:18:30 PM 49.0370 -61.0690 251° West 408 470 38,000  Level FlightAware ADS-B
Mon 01:19:07 PM 49.0180 -61.1540 251° West 408 470 38,000  Level FlightAware ADS-B
Mon 01:19:43 PM 48.9990 -61.2380 251° West 408 470 38,000  Level FlightAware ADS-B
Mon 01:20:20 PM 48.9800 -61.3230 251° West 408 470 38,000  Level FlightAware ADS-B
Mon 01:20:56 PM 48.9610 -61.4060 251° West 408 470 38,000  Level FlightAware ADS-B
Mon 01:21:32 PM 48.9420 -61.4900 251° West 408 470 38,000  Level FlightAware ADS-B
Mon 01:22:28 PM 48.8500 -61.7833 251° West 400 460 38,000  Level Gander Center
Mon 01:23:28 PM 48.8167 -61.9500 253° West 400 460 38,000  Level Gander Center
Mon 01:24:29 PM 48.7667 -62.0833 240° Southwest 400 460 38,000  Level Moncton Center
Mon 01:25:29 PM 48.7333 -62.2667 255° West 400 460 38,000  Level Moncton Center
Mon 01:26:29 PM 48.6833 -62.4167 243° Southwest 400 460 38,000  Level Moncton Center
Mon 01:27:29 PM 48.6500 -62.5667 251° West 390 449 38,000  Level Moncton Center
Mon 01:28:28 PM 48.6167 -62.7167 251° West 400 460 38,000  Level Gander Center
Mon 01:29:28 PM 48.5667 -62.9000 248° West 400 460 38,000  Level Gander Center
Mon 01:30:28 PM 48.5333 -63.0500 251° West 400 460 38,000  Level Gander Center
Mon 01:31:29 PM 48.5000 -63.2167 253° West 400 460 38,000  Level Moncton Center
Mon 01:32:29 PM 48.4500 -63.3667 243° Southwest 400 460 38,000  Level Moncton Center
Mon 01:33:29 PM 48.4167 -63.5333 253° West 410 472 38,000  Level Moncton Center
Mon 01:34:29 PM 48.3667 -63.6833 243° Southwest 400 460 38,000  Level Moncton Center
Mon 01:35:29 PM 48.3333 -63.8500 253° West 410 472 38,000  Level Moncton Center
Mon 01:36:29 PM 48.2833 -64.0167 246° West 410 472 38,000  Level Moncton Center
Mon 01:37:29 PM 48.2500 -64.1667 252° West 410 472 38,000  Level Moncton Center
Mon 01:38:29 PM 48.2000 -64.3167 243° Southwest 410 472 38,000  Level Moncton Center
Mon 01:39:29 PM 48.1667 -64.5000 255° West 420 483 38,000  Level Moncton Center
Mon 01:40:29 PM 48.1167 -64.6500 244° Southwest 410 472 38,000  Level Moncton Center
Mon 01:41:29 PM 48.0667 -64.8167 246° West 420 483 38,000  Level Moncton Center
Mon 01:42:29 PM 48.0333 -64.9667 252° West 420 483 38,000  Level Moncton Center
Mon 01:43:29 PM 47.9833 -65.1500 248° West 420 483 38,000  Level Moncton Center
Mon 01:44:29 PM 47.9500 -65.3000 252° West 420 483 38,000  Level Moncton Center
Mon 01:45:29 PM 47.9000 -65.4667 246° West 420 483 38,000  Level Moncton Center
Mon 01:46:29 PM 47.8500 -65.6167 244° Southwest 420 483 38,000  Level Moncton Center
Mon 01:47:29 PM 47.8167 -65.7667 252° West 410 472 38,000  Level Moncton Center
Mon 01:48:29 PM 47.7500 -65.9167 237° Southwest 400 460 38,000  Level Moncton Center
Mon 01:49:29 PM 47.7167 -66.0667 252° West 400 460 38,000  Level Moncton Center
Mon 01:50:29 PM 47.6833 -66.2333 254° West 400 460 38,000  Level Moncton Center
Mon 01:51:29 PM 47.6333 -66.3833 244° Southwest 390 449 38,000  Level Moncton Center
Mon 01:52:29 PM 47.6000 -66.5333 252° West 390 449 38,000  Level Moncton Center
Mon 01:53:29 PM 47.5500 -66.6833 244° Southwest 390 449 38,000  Level Moncton Center
Mon 01:54:29 PM 47.5000 -66.8333 244° Southwest 400 460 38,000  Level Moncton Center
Mon 01:55:29 PM 47.4500 -66.9667 241° Southwest 400 460 38,000  Level Moncton Center
Mon 01:56:29 PM 47.4167 -67.1167 252° West 400 460 38,000  Level Moncton Center
Mon 01:57:29 PM 47.3667 -67.2667 244° Southwest 400 460 38,000  Level Moncton Center
Mon 01:58:29 PM 47.3000 -67.4333 240° Southwest 400 460 38,000  Level Moncton Center
Mon 02:03:48 PM 47.0250 -68.2000 240° Southwest 38,000  Level FlightAware ADS-B
Mon 02:04:33 PM 46.9780 -68.3180 240° Southwest 414 476 38,000  Level FlightAware ADS-B
Mon 02:05:08 PM 46.9780 -68.3180 240° Southwest 418 481 38,000  Level FlightAware ADS-B
Mon 02:05:57 PM 46.9000 -68.5160 240° Southwest 419 482 38,000  Level FlightAware ADS-B
Mon 02:06:50 PM 46.8480 -68.6460 240° Southwest 421 484 38,000  Level FlightAware ADS-B
Mon 02:07:25 PM 46.8100 -68.7400 239° Southwest 423 487 38,000  Level FlightAware ADS-B
Mon 02:07:55 PM 46.7800 -68.8150 240° Southwest 426 490 38,000  Level FlightAware ADS-B
Mon 02:08:40 PM 46.7350 -68.9260 239° Southwest 431 496 38,000  Level FlightAware ADS-B
Mon 02:09:15 PM 46.6990 -69.0140 239° Southwest 433 498 38,000  Level FlightAware ADS-B
Mon 02:09:50 PM 46.6640 -69.1020 240° Southwest 437 503 38,000  Level FlightAware ADS-B
Mon 02:10:25 PM 46.6280 -69.1890 239° Southwest 438 504 38,000  Level FlightAware ADS-B
Mon 02:11:01 PM 46.5920 -69.2780 240° Southwest 439 505 38,000  Level FlightAware ADS-B
Mon 02:11:35 PM 46.5550 -69.3670 239° Southwest 440 506 38,000  Level FlightAware ADS-B
Mon 02:12:10 PM 46.5230 -69.4580 243° Southwest 437 503 38,000  Level FlightAware ADS-B
Mon 02:12:45 PM 46.4970 -69.5520 248° West 435 501 38,000  Level FlightAware ADS-B
Mon 02:13:20 PM 46.4720 -69.6470 249° West 434 499 38,000  Level FlightAware ADS-B
Mon 02:13:55 PM 46.4480 -69.7410 250° West 433 498 38,000  Level FlightAware ADS-B
Mon 02:14:35 PM 46.4190 -69.8500 249° West 434 499 38,000  Level FlightAware ADS-B
Mon 02:15:15 PM 46.3910 -69.9590 250° West 436 502 38,000  Level FlightAware ADS-B
Mon 02:15:50 PM 46.3660 -70.0530 249° West 437 503 38,000  Level FlightAware ADS-B
Mon 02:16:25 PM 46.3410 -70.1490 249° West 437 503 38,000 -160 Level FlightAware ADS-B
Mon 02:17:05 PM 46.3130 -70.2560 249° West 432 497 37,800 -960 Descending FlightAware ADS-B
Mon 02:17:40 PM 46.2880 -70.3510 249° West 438 504 36,800 -1,971 Descending FlightAware ADS-B
Mon 02:18:15 PM 46.2630 -70.4470 249° West 454 522 35,500 -1,714 Descending FlightAware ADS-B
Mon 02:18:50 PM 46.2370 -70.5460 249° West 456 525 34,800 -1,286 Descending FlightAware ADS-B
Mon 02:19:25 PM 46.2100 -70.6460 249° West 458 527 34,000 -1,200 Descending FlightAware ADS-B
Mon 02:20:00 PM 46.1840 -70.7450 249° West 455 524 33,400 -857 Descending FlightAware ADS-B
Mon 02:20:35 PM 46.1570 -70.8430 248° West 454 522 33,000 -343 Descending FlightAware ADS-B
Mon 02:21:10 PM 46.1300 -70.9410 248° West 452 520 33,000  Level FlightAware ADS-B
Mon 02:21:45 PM 46.1040 -71.0380 249° West 451 519 33,000  Level FlightAware ADS-B
Mon 02:22:15 PM 46.0810 -71.1220 248° West 453 521 33,000  Level FlightAware ADS-B
Mon 02:22:55 PM 46.0500 -71.2350 248° West 456 525 33,000  Level FlightAware ADS-B
Mon 02:23:30 PM 46.0230 -71.3330 248° West 456 525 33,000 -247 Level FlightAware ADS-B
Mon 02:24:08 PM 45.9960 -71.4300 248° West 449 517 32,700 -1,286 Descending FlightAware ADS-B
Mon 02:24:40 PM 45.9690 -71.5250 248° West 439 505 31,500 -2,149 Descending FlightAware ADS-B
Mon 02:25:15 PM 45.9430 -71.6190 248° West 428 493 30,300 -2,057 Descending FlightAware ADS-B
Mon 02:25:50 PM 45.9180 -71.7100 248° West 421 484 29,100 -2,057 Descending FlightAware ADS-B
Mon 02:26:25 PM 45.8930 -71.7990 248° West 414 476 27,900 -2,057 Descending FlightAware ADS-B
Mon 02:27:00 PM 45.8680 -71.8860 248° West 407 468 26,700 -2,057 Descending FlightAware ADS-B
Mon 02:27:35 PM 45.8440 -71.9740 249° West 399 459 25,500 -2,080 Descending FlightAware ADS-B
Mon 02:28:15 PM 45.8190 -72.0720 250° West 389 448 24,100 -2,057 Descending FlightAware ADS-B
Mon 02:28:45 PM 45.8100 -72.1470 260° West 382 440 23,100 -2,031 Descending FlightAware ADS-B
Mon 02:29:20 PM 45.8010 -72.2330 261° West 375 432 21,900 -2,080 Descending FlightAware ADS-B
Mon 02:30:00 PM 45.7920 -72.3290 262° West 368 423 20,500 -2,057 Descending FlightAware ADS-B
Mon 02:30:30 PM 45.7860 -72.4020 263° West 365 420 19,500 -2,031 Descending FlightAware ADS-B
Mon 02:31:05 PM 45.7770 -72.4860 261° West 361 415 18,300 -2,000 Descending FlightAware ADS-B
Mon 02:31:45 PM 45.7680 -72.5800 262° West 359 413 17,000 -2,025 Descending FlightAware ADS-B
Mon 02:32:25 PM 45.7590 -72.6730 262° West 354 407 15,600 -2,000 Descending FlightAware ADS-B
Mon 02:33:00 PM 45.7510 -72.7480 261° West 351 404 14,500 -2,000 Descending FlightAware ADS-B
Mon 02:33:34 PM 45.7420 -72.8300 261° West 346 398 13,300 -2,057 Descending FlightAware ADS-B
Mon 02:34:10 PM 45.7340 -72.9110 262° West 341 392 12,100 -2,000 Descending FlightAware ADS-B
Mon 02:34:46 PM 45.7260 -72.9920 262° West 335 386 10,900 -1,588 Descending FlightAware ADS-B
Mon 02:35:18 PM 45.7190 -73.0590 262° West 320 368 10,300 -871 Descending FlightAware ADS-B
Mon 02:35:48 PM 45.7130 -73.1200 262° West 296 341 10,000 -783 Descending FlightAware ADS-B
Mon 02:36:04 PM 45.7090 -73.1500 259° West 290 334 9,700 -1,167 Descending FlightAware ADS-B
Mon 02:36:24 PM 45.7020 -73.1870 255° West 285 328 9,300 -1,500 Descending FlightAware ADS-B
Mon 02:36:36 PM 45.6980 -73.2100 256° West 283 326 8,900 -2,000 Descending FlightAware ADS-B
Mon 02:37:00 PM 45.6910 -73.2530 257° West 281 323 8,100 -2,045 Descending FlightAware ADS-B
Mon 02:37:20 PM 45.6850 -73.2880 256° West 277 319 7,400 -2,063 Descending FlightAware ADS-B
Mon 02:37:32 PM 45.6820 -73.3090 258° West 276 318 7,000 -2,000 Descending FlightAware ADS-B
Mon 02:37:56 PM 45.6750 -73.3520 257° West 271 312 6,200 -1,571 Descending FlightAware ADS-B
Mon 02:38:14 PM 45.6700 -73.3830 257° West 267 307 5,900 -1,050 Descending FlightAware ADS-B
Mon 02:38:36 PM 45.6640 -73.4210 257° West 262 302 5,500 -1,000 Descending FlightAware ADS-B
Mon 02:38:56 PM 45.6590 -73.4530 257° West 254 292 5,200 -750 Descending FlightAware ADS-B
Mon 02:39:16 PM 45.6540 -73.4850 257° West 243 280 5,000 -667 Descending FlightAware ADS-B
Mon 02:39:32 PM 45.6500 -73.5110 258° West 237 273 4,800 -1,000 Descending FlightAware ADS-B
Mon 02:39:52 PM 45.6450 -73.5410 257° West 235 270 4,400 -1,286 Descending FlightAware ADS-B
Mon 02:40:00 PM 45.6420 -73.5520 249° West 238 274 4,200 -1,125 Descending FlightAware ADS-B
Mon 02:40:08 PM 45.6370 -73.5610 232° Southwest 238 274 4,100 -1,071 Descending FlightAware ADS-B
Mon 02:40:28 PM 45.6220 -73.5840 227° Southwest 223 257 3,700 -1,167 Descending FlightAware ADS-B
Mon 02:40:44 PM 45.6100 -73.6000 223° Southwest 210 242 3,400 -1,143 Descending FlightAware ADS-B
Mon 02:41:10 PM 45.5920 -73.6230 222° Southwest 193 222 2,900 -1,105 Descending FlightAware ADS-B
Mon 02:41:22 PM 45.5850 -73.6330 225° Southwest 191 220 2,700 -938 Descending FlightAware ADS-B
Mon 02:41:42 PM 45.5710 -73.6510 222° Southwest 185 213 2,400 -933 Descending FlightAware ADS-B
Mon 02:42:07 PM 45.5570 -73.6700 224° Southwest 179 206 2,000 -955 Descending FlightAware ADS-B
Mon 02:42:26 PM 45.5450 -73.6860 223° Southwest 171 197 1,700 -900 Descending FlightAware ADS-B
Mon 02:42:47 PM 45.5340 -73.7000 222° Southwest 156 180 1,400 -857 Descending FlightAware ADS-B
Mon 02:43:08 PM 45.5230 -73.7150 224° Southwest 145 167 1,100 -878 Descending FlightAware ADS-B
Mon 02:43:28 PM 45.5130 -73.7280 222° Southwest 145 167 800 -682 Descending FlightAware ADS-B
Mon 02:43:52 PM 45.5010 -73.7430 221° Southwest 142 163 600 -682 Descending FlightAware ADS-B
Mon 02:44:12 PM 45.4920 -73.7550 223° Southwest 146 168 300 -769 Descending FlightAware ADS-B
Mon 02:44:31 PM 45.4830 -73.7670 223° Southwest 138 159 100 -632 Descending FlightAware ADS-B

Login

Don't have an account? Register now (free) for customized features, flight alerts, and more!